createdAt,value
2019-01-09T00:01:54.769Z,88.4
2019-01-09T00:07:49.775Z,97.15
2019-01-09T00:13:44.734Z,87.49
2019-01-09T00:19:39.742Z,72.57
2019-01-09T00:25:34.751Z,76.43
2019-01-09T00:31:29.739Z,89.96
2019-01-09T00:37:24.761Z,78.11
2019-01-09T00:43:19.762Z,77.79
2019-01-09T00:49:14.735Z,75.71
2019-01-09T00:55:09.755Z,74.6
2019-01-09T01:01:04.761Z,90.65
2019-01-09T01:06:59.748Z,79.97
2019-01-09T01:12:54.795Z,64.85
2019-01-09T01:18:49.766Z,66.34
2019-01-09T01:24:44.764Z,55.5
2019-01-09T01:30:39.760Z,41.61
2019-01-09T01:36:34.777Z,28.16
2019-01-09T01:42:29.774Z,25.79
2019-01-09T01:48:24.774Z,35.35
2019-01-09T01:54:19.781Z,48.96
2019-01-09T02:00:14.795Z,62.9
2019-01-09T02:06:09.787Z,61.45
2019-01-09T02:12:04.795Z,61.77
2019-01-09T02:17:59.801Z,47.79
2019-01-09T02:23:54.805Z,31.35
2019-01-09T02:29:49.820Z,29.76
2019-01-09T02:35:44.841Z,31.05
2019-01-09T02:41:39.807Z,30.29
2019-01-09T02:47:34.809Z,30.93
2019-01-09T02:53:29.826Z,41.44
2019-01-09T02:59:24.869Z,46.87
2019-01-09T03:05:19.830Z,36.27
2019-01-09T03:11:14.819Z,38.45
2019-01-09T03:17:09.811Z,35.06
2019-01-09T03:23:04.825Z,27.18
2019-01-09T03:28:59.840Z,29.65
2019-01-09T03:34:54.839Z,25.3
2019-01-09T03:40:49.828Z,21.99
2019-01-09T03:46:44.874Z,26.78
2019-01-09T03:52:39.891Z,54.15
2019-01-09T03:58:34.884Z,22.22
2019-01-09T04:04:29.856Z,20.09
2019-01-09T04:10:24.905Z,23.82
2019-01-09T04:16:19.863Z,26.38
2019-01-09T04:22:14.856Z,31.63
2019-01-09T04:28:09.892Z,32.73
2019-01-09T04:34:04.850Z,48.89
2019-01-09T04:39:59.874Z,45.7
2019-01-09T04:45:54.869Z,35.42
2019-01-09T04:51:49.915Z,56.45
2019-01-09T04:57:44.912Z,57.45
2019-01-09T05:03:39.880Z,64.73
2019-01-09T05:09:34.877Z,71.29
2019-01-09T05:15:29.932Z,64.59
2019-01-09T05:21:24.922Z,67.56
2019-01-09T05:27:19.883Z,71.85
2019-01-09T05:33:14.922Z,76.24
2019-01-09T05:39:09.944Z,77.27
2019-01-09T05:45:04.885Z,86.63
2019-01-09T05:50:59.907Z,72.71
2019-01-09T05:56:54.919Z,76.03
2019-01-09T06:02:49.921Z,63.51
2019-01-09T06:08:44.895Z,59.71
2019-01-09T06:14:39.923Z,57.27
2019-01-09T06:20:34.939Z,59.44
2019-01-09T06:26:29.928Z,62.59
2019-01-09T06:32:24.906Z,63.64
2019-01-09T06:38:19.907Z,64.8
2019-01-09T06:44:14.921Z,65.93
2019-01-09T06:50:10.027Z,60.82
2019-01-09T06:56:04.981Z,62.96
2019-01-09T07:01:59.939Z,63.49
2019-01-09T07:07:54.950Z,67.11
2019-01-09T07:13:49.922Z,70.38
2019-01-09T07:19:44.978Z,69.93
2019-01-09T07:25:39.951Z,69.77
2019-01-09T07:31:34.962Z,67.9
2019-01-09T07:37:29.968Z,61.9
2019-01-09T07:43:24.949Z,61.81
2019-01-09T07:49:19.946Z,58.97
2019-01-09T07:55:14.954Z,62.32
2019-01-09T08:01:09.985Z,64.58
2019-01-09T08:07:05.000Z,57.04
2019-01-09T08:12:59.968Z,58.82
2019-01-09T08:18:54.956Z,69.89
2019-01-09T08:24:50.036Z,65.61
2019-01-09T08:30:44.987Z,72.4
2019-01-09T08:36:39.992Z,68.13
2019-01-09T08:42:34.985Z,59.63
2019-01-09T08:48:30.000Z,71.14
2019-01-09T08:54:24.999Z,60.95
2019-01-09T09:00:20.033Z,64.14
2019-01-09T09:06:14.987Z,63.44
2019-01-09T09:12:10.001Z,66.92
2019-01-09T09:18:05.003Z,74.84
2019-01-09T09:23:59.989Z,66.4
2019-01-09T09:29:55.024Z,67.04
2019-01-09T09:35:50.092Z,75.39
2019-01-09T09:41:45.058Z,69.44
2019-01-09T09:47:40.047Z,69.35
2019-01-09T09:53:35.011Z,79.02
2019-01-09T09:59:30.011Z,77.51
2019-01-09T10:05:25.024Z,80.64
2019-01-09T10:11:20.030Z,78.43
2019-01-09T10:17:15.068Z,72.96
2019-01-09T10:23:10.051Z,74.2
2019-01-09T10:29:05.114Z,79.38
2019-01-09T10:35:00.046Z,77.32
2019-01-09T10:40:55.033Z,89.05
2019-01-09T10:46:50.039Z,82.28
2019-01-09T10:52:45.049Z,74.28
2019-01-09T10:58:40.074Z,69.17
2019-01-09T11:04:35.051Z,88.59
2019-01-09T11:10:30.074Z,101.54
2019-01-09T11:16:25.066Z,101.44
2019-01-09T11:22:20.057Z,110.39
2019-01-09T11:28:15.085Z,117.13
2019-01-09T11:34:10.062Z,118.08
2019-01-09T11:40:05.068Z,114.06
2019-01-09T11:46:00.078Z,104.91
2019-01-09T11:51:55.097Z,115.3
2019-01-09T11:57:50.059Z,138.82
2019-01-09T12:03:45.092Z,138.71
2019-01-09T12:09:40.096Z,121.87
2019-01-09T12:15:35.088Z,133.9
2019-01-09T12:21:30.101Z,131.56
2019-01-09T12:27:25.090Z,123.32
2019-01-09T12:33:20.180Z,131.9
2019-01-09T12:39:15.119Z,133.76
2019-01-09T12:45:10.100Z,133.79
2019-01-09T12:51:05.144Z,129.18
2019-01-09T12:57:00.100Z,137.61
2019-01-09T13:02:55.173Z,136.69
2019-01-09T13:08:50.127Z,129.03
2019-01-09T13:14:45.127Z,129.63
2019-01-09T13:20:40.113Z,129.53
2019-01-09T13:26:35.136Z,127.76
2019-01-09T13:32:30.165Z,95.46
2019-01-09T13:38:25.117Z,112.72
2019-01-09T13:44:20.172Z,95.22
2019-01-09T13:50:15.119Z,10.12
2019-01-09T13:56:10.155Z,28.72
2019-01-09T14:02:05.166Z,22.27
2019-01-09T14:08:00.144Z,46.17
2019-01-09T14:13:55.159Z,21.25
2019-01-09T14:19:50.159Z,8.08
2019-01-09T14:25:45.153Z,17.15
2019-01-09T14:31:40.145Z,2.53
2019-01-09T14:37:35.157Z,7.11
2019-01-09T14:43:30.177Z,4.87
2019-01-09T14:49:25.174Z,2.65
2019-01-09T14:55:20.208Z,5.06
2019-01-09T15:01:15.171Z,19.63
2019-01-09T15:07:10.171Z,10.49
2019-01-09T15:13:05.200Z,14.28
2019-01-09T15:19:00.199Z,10.31
2019-01-09T15:24:55.175Z,4.74
2019-01-09T15:30:50.174Z,1.98
2019-01-09T15:36:45.184Z,3.62
2019-01-09T15:42:40.225Z,9.62
2019-01-09T15:48:35.218Z,4.96
2019-01-09T15:54:30.215Z,4.37
2019-01-09T16:00:25.204Z,5.45
2019-01-09T16:06:20.303Z,8.28
2019-01-09T16:12:15.220Z,7.54
2019-01-09T16:18:10.215Z,4.94
2019-01-09T16:24:05.214Z,4.7
2019-01-09T16:30:00.293Z,10.9
2019-01-09T16:35:55.249Z,7.19
2019-01-09T16:41:50.236Z,5.77
2019-01-09T16:47:45.278Z,6.05
2019-01-09T16:53:40.226Z,8.48
2019-01-09T16:59:35.248Z,4.92
2019-01-09T17:05:30.239Z,6.31
2019-01-09T17:11:25.241Z,4.24
2019-01-09T17:17:20.233Z,41.6
2019-01-09T17:23:15.264Z,38.07
2019-01-09T17:29:10.249Z,37.83
2019-01-09T17:35:05.259Z,9.53
2019-01-09T17:41:00.269Z,23.48
2019-01-09T17:46:55.258Z,45.23
2019-01-09T17:52:50.265Z,4.38
2019-01-09T17:58:45.260Z,48.23
2019-01-09T18:04:40.278Z,6.07
2019-01-09T18:10:35.279Z,6.54
2019-01-09T18:16:30.306Z,43.5
2019-01-09T18:22:25.294Z,20.12
2019-01-09T18:28:20.357Z,29.36
2019-01-09T18:34:15.290Z,12.37
2019-01-09T18:40:10.302Z,38.86
2019-01-09T18:46:05.282Z,11.22
2019-01-09T18:52:00.292Z,8.47
2019-01-09T18:57:55.299Z,34.68
2019-01-09T19:03:50.333Z,7.86
2019-01-09T19:09:45.310Z,72.2
2019-01-09T19:15:40.298Z,40.37
2019-01-09T19:21:35.315Z,116.57
2019-01-09T19:27:30.312Z,15.32
2019-01-09T19:33:25.320Z,39.11
2019-01-09T19:39:20.324Z,49.31
2019-01-09T19:45:15.345Z,12.81
2019-01-09T19:51:17.258Z,36.37
2019-01-09T19:57:05.313Z,29.25
2019-01-09T20:03:00.302Z,48.04
2019-01-09T20:08:55.383Z,33.52
2019-01-09T20:14:50.355Z,12.69
2019-01-09T20:20:45.327Z,8.33
2019-01-09T20:26:40.353Z,34.89
2019-01-09T20:32:35.339Z,29.74
2019-01-09T20:38:30.446Z,24.79
2019-01-09T20:44:25.383Z,3.57
2019-01-09T20:50:20.492Z,3.45
2019-01-09T20:56:15.349Z,6.43
2019-01-09T21:02:10.385Z,6.53
2019-01-09T21:08:05.351Z,6.69
2019-01-09T21:14:00.400Z,11.28
2019-01-09T21:19:55.411Z,10.33
2019-01-09T21:25:50.384Z,13.4
2019-01-09T21:31:45.398Z,8.2
2019-01-09T21:37:40.371Z,12.67
2019-01-09T21:43:35.390Z,31.71
2019-01-09T21:49:30.399Z,47.28
2019-01-09T21:55:25.406Z,67.97
2019-01-09T22:01:20.422Z,28.93
2019-01-09T22:07:15.505Z,45.25
2019-01-09T22:13:10.385Z,45.9
2019-01-09T22:19:11.828Z,5.31
2019-01-09T22:25:00.410Z,20.31
2019-01-09T22:30:55.388Z,15.68
2019-01-09T22:36:50.414Z,15.3
2019-01-09T22:42:45.428Z,7.23
2019-01-09T22:48:40.439Z,8.01
2019-01-09T22:54:36.402Z,7.17
2019-01-09T23:00:30.405Z,9.45
2019-01-09T23:06:25.466Z,7.86
2019-01-09T23:12:21.318Z,10.83
2019-01-09T23:18:15.460Z,9.51
2019-01-09T23:24:10.563Z,9.82
2019-01-09T23:30:05.456Z,7.7
2019-01-09T23:36:00.446Z,6.97
2019-01-09T23:41:55.451Z,20.77
2019-01-09T23:47:50.434Z,11.44
2019-01-09T23:53:45.456Z,4.95
2019-01-09T23:59:40.472Z,4.08
